createdAt,value
2019-04-01T00:00:28.104Z,99818.67
2019-04-01T00:02:53.992Z,99824.05
2019-04-01T00:05:19.936Z,99826.47
2019-04-01T00:07:45.811Z,99826.00
2019-04-01T00:10:11.890Z,99826.23
2019-04-01T00:12:37.813Z,99829.45
2019-04-01T00:15:05.648Z,99831.22
2019-04-01T00:17:31.714Z,99829.73
2019-04-01T00:19:57.540Z,99833.23
2019-04-01T00:22:23.410Z,99818.23
2019-04-01T00:24:49.278Z,99818.23
2019-04-01T00:27:15.108Z,99830.69
2019-04-01T00:29:40.967Z,99830.55
2019-04-01T00:32:06.919Z,99830.93
2019-04-01T00:34:32.770Z,99823.40
2019-04-01T00:36:58.588Z,99819.23
2019-04-01T00:39:24.474Z,99821.50
2019-04-01T00:42:01.653Z,99828.13
2019-04-01T00:44:27.541Z,99822.39
2019-04-01T00:46:53.386Z,99824.47
2019-04-01T00:49:19.342Z,99826.61
2019-04-01T00:51:45.230Z,99827.09
2019-04-01T00:54:11.082Z,99826.11
2019-04-01T00:56:36.925Z,99829.50
2019-04-01T00:59:03.218Z,99830.05
2019-04-01T01:01:29.050Z,99832.66
2019-04-01T01:03:54.985Z,99833.00
2019-04-01T01:06:20.940Z,99825.69
2019-04-01T01:08:47.036Z,99826.03
2019-04-01T01:11:12.961Z,99827.66
2019-04-01T01:13:38.959Z,99827.38
2019-04-01T01:16:04.915Z,99822.17
2019-04-01T01:18:30.737Z,99823.25
2019-04-01T01:20:56.619Z,99821.84
2019-04-01T01:23:22.543Z,99818.13
2019-04-01T01:25:48.357Z,99814.67
2019-04-01T01:28:14.214Z,99821.41
2019-04-01T01:30:40.156Z,99817.02
2019-04-01T01:33:06.037Z,99818.00
2019-04-01T01:35:32.681Z,99818.84
2019-04-01T01:37:58.502Z,99813.65
2019-04-01T01:40:24.559Z,99819.84
2019-04-01T01:42:50.399Z,99817.70
2019-04-01T01:45:16.416Z,99818.69
2019-04-01T01:47:42.421Z,99819.57
2019-04-01T01:50:08.377Z,99821.38
2019-04-01T01:52:34.327Z,99813.98
2019-04-01T01:55:00.495Z,99813.72
2019-04-01T01:57:26.337Z,99815.09
2019-04-01T01:59:52.169Z,99809.92
2019-04-01T02:02:18.251Z,99811.77
2019-04-01T02:04:44.163Z,99815.27
2019-04-01T02:07:09.989Z,99813.39
2019-04-01T02:09:35.855Z,99810.06
2019-04-01T02:12:01.667Z,99813.18
2019-04-01T02:14:27.640Z,99814.11
2019-04-01T02:16:53.482Z,99821.59
2019-04-01T02:19:19.463Z,99818.84
2019-04-01T02:21:45.349Z,99812.63
2019-04-01T02:24:11.212Z,99810.48
2019-04-01T02:26:37.055Z,99808.66
2019-04-01T02:29:03.018Z,99812.83
2019-04-01T02:31:28.894Z,99811.17
2019-04-01T02:33:54.715Z,99820.17
2019-04-01T02:36:20.669Z,99821.16
2019-04-01T02:38:46.508Z,99818.73
2019-04-01T02:41:16.739Z,99816.38
2019-04-01T02:43:42.672Z,99812.70
2019-04-01T02:46:08.507Z,99820.00
2019-04-01T02:48:34.366Z,99821.20
2019-04-01T02:51:00.297Z,99814.40
2019-04-01T02:53:26.141Z,99814.95
2019-04-01T02:55:52.071Z,99813.02
2019-04-01T02:58:18.013Z,99815.58
2019-04-01T03:00:44.112Z,99806.89
2019-04-01T03:03:09.978Z,99809.19
2019-04-01T03:05:35.818Z,99805.65
2019-04-01T03:08:01.865Z,99808.00
2019-04-01T03:10:27.699Z,99811.05
2019-04-01T03:12:53.676Z,99807.55
2019-04-01T03:15:19.618Z,99802.42
2019-04-01T03:17:45.579Z,99804.17
2019-04-01T03:20:11.936Z,99802.77
2019-04-01T03:22:37.755Z,99809.68
2019-04-01T03:25:04.672Z,99809.53
2019-04-01T03:27:30.555Z,99804.13
2019-04-01T03:29:56.431Z,99813.77
2019-04-01T03:32:22.370Z,99810.16
2019-04-01T03:34:48.440Z,99810.63
2019-04-01T03:37:14.309Z,99807.70
2019-04-01T03:39:40.249Z,99815.64
2019-04-01T03:42:06.232Z,99808.24
2019-04-01T03:44:32.074Z,99805.95
2019-04-01T03:46:58.102Z,99814.46
2019-04-01T03:49:23.934Z,99805.33
2019-04-01T03:51:49.847Z,99802.77
2019-04-01T03:54:15.777Z,99804.90
2019-04-01T03:56:41.635Z,99803.09
2019-04-01T03:59:07.452Z,99807.52
2019-04-01T04:01:33.334Z,99803.22
2019-04-01T04:03:59.187Z,99806.57
2019-04-01T04:06:25.023Z,99811.39
2019-04-01T04:08:50.931Z,99820.69
2019-04-01T04:11:16.881Z,99816.68
2019-04-01T04:13:42.819Z,99815.91
2019-04-01T04:16:08.701Z,99817.66
2019-04-01T04:18:34.681Z,99816.33
2019-04-01T04:21:00.627Z,99807.62
2019-04-01T04:23:26.483Z,99812.14
2019-04-01T04:25:52.584Z,99813.81
2019-04-01T04:28:18.666Z,99828.70
2019-04-01T04:30:45.186Z,99812.83
2019-04-01T04:33:11.123Z,99810.69
2019-04-01T04:35:36.986Z,99809.27
2019-04-01T04:38:02.912Z,99817.70
2019-04-01T04:40:28.839Z,99816.30
2019-04-01T04:42:54.753Z,99815.84
2019-04-01T04:45:20.669Z,99822.41
2019-04-01T04:47:46.709Z,99821.81
2019-04-01T04:50:12.752Z,99828.16
2019-04-01T04:52:38.587Z,99822.95
2019-04-01T04:55:05.072Z,99831.93
2019-04-01T04:57:30.919Z,99834.48
2019-04-01T04:59:56.961Z,99830.64
2019-04-01T05:02:24.549Z,99839.63
2019-04-01T05:04:50.675Z,99829.33
2019-04-01T05:07:16.706Z,99828.78
2019-04-01T05:09:42.590Z,99833.48
2019-04-01T05:12:08.433Z,99835.16
2019-04-01T05:14:34.507Z,99834.96
2019-04-01T05:17:00.554Z,99844.05
2019-04-01T05:19:26.621Z,99844.09
2019-04-01T05:21:53.344Z,99847.70
2019-04-01T05:24:19.459Z,99850.39
2019-04-01T05:26:47.286Z,99851.32
2019-04-01T05:29:13.404Z,99853.80
2019-04-01T05:31:41.572Z,99856.29
2019-04-01T05:34:11.215Z,99856.45
2019-04-01T05:36:37.544Z,99856.33
2019-04-01T05:39:05.865Z,99854.08
2019-04-01T05:41:32.416Z,99867.73
2019-04-01T05:44:02.039Z,99866.83
2019-04-01T05:46:26.442Z,99870.48
2019-04-01T05:48:52.622Z,99867.95
2019-04-01T05:51:18.645Z,99870.51
2019-04-01T05:53:45.117Z,99872.88
2019-04-01T05:56:11.248Z,99876.53
2019-04-01T05:58:37.317Z,99878.41
2019-04-01T06:01:11.145Z,99881.13
2019-04-01T06:03:37.217Z,99882.70
2019-04-01T06:06:03.234Z,99886.33
2019-04-01T06:08:29.293Z,99887.73
2019-04-01T06:10:55.460Z,99886.58
2019-04-01T06:13:21.484Z,99886.92
2019-04-01T06:15:47.434Z,99889.31
2019-04-01T06:18:13.479Z,99894.60
2019-04-01T06:20:39.543Z,99894.30
2019-04-01T06:23:05.482Z,99901.63
2019-04-01T06:25:31.567Z,99894.78
2019-04-01T06:27:57.467Z,99895.25
2019-04-01T06:30:23.511Z,99894.37
2019-04-01T06:32:49.333Z,99893.34
2019-04-01T06:35:15.346Z,99896.95
2019-04-01T06:37:41.479Z,99894.25
2019-04-01T06:40:07.812Z,99896.84
2019-04-01T06:42:33.881Z,99889.33
2019-04-01T06:44:59.912Z,99892.69
2019-04-01T06:47:26.027Z,99897.66
2019-04-01T06:49:52.261Z,99894.27
2019-04-01T06:52:18.310Z,99892.30
2019-04-01T06:54:44.459Z,99896.15
2019-04-01T06:57:10.392Z,99895.55
2019-04-01T06:59:36.324Z,99894.31
2019-04-01T07:02:02.317Z,99893.78
2019-04-01T07:04:28.893Z,99892.08
2019-04-01T07:06:54.722Z,99891.38
2019-04-01T07:09:20.639Z,99889.91
2019-04-01T07:11:46.823Z,99886.80
2019-04-01T07:14:12.833Z,99905.15
2019-04-01T07:16:40.174Z,99886.78
2019-04-01T07:19:06.270Z,99895.44
2019-04-01T07:21:32.243Z,99896.72
2019-04-01T07:23:58.307Z,99903.02
2019-04-01T07:26:24.151Z,99900.36
2019-04-01T07:28:49.974Z,99910.17
2019-04-01T07:31:16.023Z,99903.03
2019-04-01T07:33:42.568Z,99904.48
2019-04-01T07:36:08.649Z,99908.02
2019-04-01T07:38:34.583Z,99908.65
2019-04-01T07:41:00.415Z,99908.28
2019-04-01T07:43:27.617Z,99907.13
2019-04-01T07:45:53.668Z,99907.64
2019-04-01T07:48:19.757Z,99910.44
2019-04-01T07:50:45.694Z,99906.09
2019-04-01T07:53:11.564Z,99908.34
2019-04-01T07:55:37.632Z,99910.25
2019-04-01T07:58:03.675Z,99910.88
2019-04-01T08:00:29.728Z,99914.15
2019-04-01T08:02:55.897Z,99913.12
2019-04-01T08:05:21.731Z,99912.08
2019-04-01T08:07:47.765Z,99918.41
2019-04-01T08:10:14.553Z,99915.69
2019-04-01T08:12:40.398Z,99924.25
2019-04-01T08:15:06.712Z,99919.18
2019-04-01T08:17:32.707Z,99922.00
2019-04-01T08:19:59.064Z,99917.06
2019-04-01T08:22:25.093Z,99924.73
2019-04-01T08:27:23.775Z,99926.45
2019-04-01T08:29:49.806Z,99922.80
2019-04-01T08:32:15.682Z,99927.70
2019-04-01T08:34:41.706Z,99924.45
2019-04-01T08:37:07.835Z,99925.62
2019-04-01T08:39:33.949Z,99921.18
2019-04-01T08:42:00.955Z,99927.61
2019-04-01T08:44:27.082Z,99917.19
2019-04-01T08:46:53.231Z,99918.64
2019-04-01T08:49:19.053Z,99919.51
2019-04-01T08:51:45.172Z,99919.61
2019-04-01T08:54:11.096Z,99923.88
2019-04-01T08:56:37.973Z,99928.18
2019-04-01T08:59:04.359Z,99929.22
2019-04-01T09:01:35.504Z,99926.34
2019-04-01T09:03:58.162Z,99924.23
2019-04-01T09:06:24.073Z,99933.16
2019-04-01T09:08:51.508Z,99945.72
2019-04-01T09:11:17.429Z,99934.70
2019-04-01T09:13:44.083Z,99931.48
2019-04-01T09:16:14.721Z,99925.72
2019-04-01T09:18:40.529Z,99921.20
2019-04-01T09:21:06.613Z,99925.13
2019-04-01T09:23:32.455Z,99931.63
2019-04-01T09:25:58.298Z,99926.00
2019-04-01T09:28:24.189Z,99927.11
2019-04-01T09:30:50.132Z,99922.05
2019-04-01T09:33:15.965Z,99920.70
2019-04-01T09:35:42.042Z,99916.70
2019-04-01T09:38:07.976Z,99922.57
2019-04-01T09:40:34.003Z,99920.91
2019-04-01T09:42:59.928Z,99915.15
2019-04-01T09:45:25.971Z,99913.20
2019-04-01T09:47:51.882Z,99916.11
2019-04-01T09:50:18.088Z,99915.91
2019-04-01T09:52:44.042Z,99910.64
2019-04-01T09:55:10.055Z,99908.09
2019-04-01T09:57:35.949Z,99910.43
2019-04-01T10:00:07.829Z,99906.02
2019-04-01T10:02:33.728Z,99896.11
2019-04-01T10:04:59.656Z,99896.40
2019-04-01T10:07:25.536Z,99897.88
2019-04-01T10:09:51.499Z,99895.16
2019-04-01T10:12:17.413Z,99888.56
2019-04-01T10:14:43.244Z,99886.63
2019-04-01T10:17:10.550Z,99890.97
2019-04-01T10:19:36.399Z,99892.61
2019-04-01T10:22:02.409Z,99900.52
2019-04-01T10:24:28.552Z,99884.66
2019-04-01T10:26:54.687Z,99888.23
2019-04-01T10:29:20.690Z,99883.90
2019-04-01T10:31:46.952Z,99875.09
2019-04-01T10:34:12.833Z,99886.04
2019-04-01T10:36:38.828Z,99879.69
2019-04-01T10:39:06.025Z,99879.55
2019-04-01T10:41:32.124Z,99876.95
2019-04-01T10:43:58.027Z,99867.59
2019-04-01T10:46:24.003Z,99881.98
2019-04-01T10:48:50.017Z,99868.97
2019-04-01T10:51:15.940Z,99868.05
2019-04-01T10:53:41.863Z,99868.05
2019-04-01T10:56:07.987Z,99862.94
2019-04-01T10:58:34.077Z,99859.77
2019-04-01T11:01:00.096Z,99857.22
2019-04-01T11:03:26.312Z,99859.16
2019-04-01T11:05:52.252Z,99852.06
2019-04-01T11:08:18.329Z,99852.48
2019-04-01T11:10:44.256Z,99844.80
2019-04-01T11:13:10.128Z,99852.30
2019-04-01T11:15:36.163Z,99849.79
2019-04-01T11:18:02.211Z,99830.45
2019-04-01T11:20:28.107Z,99838.22
2019-04-01T11:22:54.148Z,99837.83
2019-04-01T11:25:20.268Z,99832.54
2019-04-01T11:27:46.254Z,99829.88
2019-04-01T11:30:14.179Z,99831.59
2019-04-01T11:32:40.756Z,99834.55
2019-04-01T11:35:07.612Z,99831.52
2019-04-01T11:37:33.649Z,99824.86
2019-04-01T11:39:59.670Z,99826.97
2019-04-01T11:42:25.537Z,99819.23
2019-04-01T11:44:52.540Z,99818.27
2019-04-01T11:47:21.967Z,99812.77
2019-04-01T11:49:46.695Z,99814.34
2019-04-01T11:52:15.535Z,99807.36
2019-04-01T11:54:40.787Z,99810.43
2019-04-01T11:57:06.898Z,99800.01
2019-04-01T11:59:32.871Z,99804.81
2019-04-01T12:01:58.776Z,99795.14
2019-04-01T12:04:24.787Z,99792.17
2019-04-01T12:06:50.974Z,99794.45
2019-04-01T12:09:16.863Z,99792.47
2019-04-01T12:11:42.784Z,99787.39
2019-04-01T12:14:08.696Z,99781.38
2019-04-01T12:16:34.813Z,99777.30
2019-04-01T12:19:01.687Z,99778.55
2019-04-01T12:21:27.577Z,99772.22
2019-04-01T12:23:53.452Z,99769.88
2019-04-01T12:26:19.393Z,99758.34
2019-04-01T12:28:45.275Z,99748.03
2019-04-01T12:31:12.970Z,99754.97
2019-04-01T12:33:39.572Z,99756.16
2019-04-01T12:36:06.180Z,99749.77
2019-04-01T12:38:32.170Z,99749.77
2019-04-01T12:40:58.163Z,99747.98
2019-04-01T12:43:24.173Z,99744.49
2019-04-01T12:45:50.257Z,99743.28
2019-04-01T12:48:16.194Z,99732.61
2019-04-01T12:50:42.185Z,99731.19
2019-04-01T12:53:08.907Z,99738.42
2019-04-01T12:55:34.906Z,99733.05
2019-04-01T12:58:00.834Z,99726.06
2019-04-01T13:00:29.105Z,99722.91
2019-04-01T13:02:54.605Z,99720.91
2019-04-01T13:05:20.554Z,99716.02
2019-04-01T13:07:46.405Z,99718.14
2019-04-01T13:10:12.513Z,99714.17
2019-04-01T13:12:38.467Z,99715.08
2019-04-01T13:15:05.671Z,99713.84
2019-04-01T13:17:31.679Z,99700.84
2019-04-01T13:19:57.723Z,99702.54
2019-04-01T13:22:23.686Z,99710.94
2019-04-01T13:24:49.667Z,99706.59
2019-04-01T13:27:15.814Z,99696.52
2019-04-01T13:29:41.706Z,99696.63
2019-04-01T13:32:07.621Z,99697.53
2019-04-01T13:34:35.452Z,99683.50
2019-04-01T13:37:01.484Z,99678.27
2019-04-01T13:39:27.643Z,99681.42
2019-04-01T13:41:56.225Z,99686.06
2019-04-01T13:44:35.808Z,99689.44
2019-04-01T13:46:50.642Z,99685.80
2019-04-01T13:49:16.813Z,99683.40
2019-04-01T13:51:43.842Z,99681.78
2019-04-01T13:54:11.444Z,99678.72
2019-04-01T13:56:38.108Z,99675.30
2019-04-01T13:59:04.108Z,99667.20
2019-04-01T14:01:30.096Z,99680.03
2019-04-01T14:03:55.992Z,99664.63
2019-04-01T14:06:22.569Z,99665.16
2019-04-01T14:08:49.258Z,99661.59
2019-04-01T14:11:15.090Z,99655.56
2019-04-01T14:13:41.037Z,99663.32
2019-04-01T14:16:07.231Z,99666.48
2019-04-01T14:18:33.205Z,99656.95
2019-04-01T14:21:14.912Z,99656.67
2019-04-01T14:23:28.204Z,99653.22
2019-04-01T14:25:54.191Z,99647.38
2019-04-01T14:28:20.297Z,99651.22
2019-04-01T14:30:46.448Z,99641.35
2019-04-01T14:33:12.345Z,99648.68
2019-04-01T14:35:38.247Z,99647.12
2019-04-01T14:38:04.268Z,99643.17
2019-04-01T14:40:32.592Z,99639.42
2019-04-01T14:42:58.612Z,99644.48
2019-04-01T14:45:24.702Z,99648.85
2019-04-01T14:47:57.411Z,99645.63
2019-04-01T14:50:18.601Z,99647.44
2019-04-01T14:52:44.857Z,99647.26
2019-04-01T14:55:11.035Z,99634.41
2019-04-01T14:57:36.917Z,99637.36
2019-04-01T15:00:06.602Z,99635.97
2019-04-01T15:02:32.758Z,99638.23
2019-04-01T15:04:58.767Z,99637.39
2019-04-01T15:07:27.907Z,99620.72
2019-04-01T15:09:53.964Z,99639.12
2019-04-01T15:12:19.950Z,99626.90
2019-04-01T15:14:45.885Z,99637.26
2019-04-01T15:17:14.954Z,99629.95
2019-04-01T15:19:40.960Z,99620.45
2019-04-01T15:22:07.183Z,99612.98
2019-04-01T15:24:33.296Z,99617.68
2019-04-01T15:26:59.483Z,99614.91
2019-04-01T15:29:25.514Z,99608.69
2019-04-01T15:31:51.703Z,99600.30
2019-04-01T15:34:19.363Z,99601.95
2019-04-01T15:36:45.602Z,99607.59
2019-04-01T15:39:15.186Z,99604.08
2019-04-01T15:41:41.100Z,99611.70
2019-04-01T15:44:07.103Z,99609.33
2019-04-01T15:46:33.097Z,99610.69
2019-04-01T15:48:59.016Z,99602.56
2019-04-01T15:51:25.010Z,99602.22
2019-04-01T15:53:50.905Z,99597.99
2019-04-01T15:56:16.855Z,99588.28
2019-04-01T15:58:42.857Z,99584.52
2019-04-01T16:01:08.886Z,99586.36
2019-04-01T16:03:34.939Z,99583.35
2019-04-01T16:06:00.934Z,99583.45
2019-04-01T16:08:26.939Z,99588.50
2019-04-01T16:10:52.913Z,99585.64
2019-04-01T16:13:18.981Z,99586.62
2019-04-01T16:15:45.089Z,99588.61
2019-04-01T16:18:10.993Z,99584.00
2019-04-01T16:20:36.891Z,99594.35
2019-04-01T16:23:03.038Z,99588.77
2019-04-01T16:25:28.948Z,99595.30
2019-04-01T16:27:54.845Z,99601.29
2019-04-01T16:30:20.833Z,99607.91
2019-04-01T16:32:46.649Z,99599.70
2019-04-01T16:35:12.679Z,99599.93
2019-04-01T16:37:38.759Z,99592.42
2019-04-01T16:40:06.019Z,99592.54
2019-04-01T16:42:32.043Z,99589.28
2019-04-01T16:44:58.093Z,99594.73
2019-04-01T16:47:24.089Z,99601.04
2019-04-01T16:49:50.056Z,99600.84
2019-04-01T16:52:16.087Z,99608.64
2019-04-01T16:54:45.885Z,99601.83
2019-04-01T16:57:11.783Z,99606.83
2019-04-01T16:59:37.735Z,99607.84
2019-04-01T17:02:17.004Z,99606.02
2019-04-01T17:04:31.631Z,99601.95
2019-04-01T17:06:57.703Z,99599.84
2019-04-01T17:09:23.817Z,99608.55
2019-04-01T17:11:49.809Z,99612.73
2019-04-01T17:14:15.894Z,99603.21
2019-04-01T17:16:41.888Z,99606.75
2019-04-01T17:19:07.971Z,99610.59
2019-04-01T17:21:34.341Z,99608.03
2019-04-01T17:24:02.357Z,99605.11
2019-04-01T17:26:28.499Z,99609.23
2019-04-01T17:28:54.391Z,99614.59
2019-04-01T17:31:20.393Z,99615.30
2019-04-01T17:33:46.842Z,99616.88
2019-04-01T17:36:15.842Z,99622.80
2019-04-01T17:38:41.648Z,99623.43
2019-04-01T17:41:07.662Z,99623.78
2019-04-01T17:43:33.640Z,99621.61
2019-04-01T17:46:00.502Z,99634.87
2019-04-01T17:48:26.654Z,99632.28
2019-04-01T17:50:52.646Z,99631.38
2019-04-01T17:53:18.562Z,99635.80
2019-04-01T17:55:45.740Z,99639.50
2019-04-01T17:58:12.091Z,99640.50
2019-04-01T18:00:41.111Z,99643.48
2019-04-01T18:03:09.495Z,99644.97
2019-04-01T18:05:35.617Z,99650.77
2019-04-01T18:08:01.712Z,99650.78
2019-04-01T18:10:28.276Z,99654.80
2019-04-01T18:12:54.478Z,99651.41
2019-04-01T18:15:20.791Z,99649.56
2019-04-01T18:17:46.899Z,99656.67
2019-04-01T18:20:13.013Z,99657.54
2019-04-01T18:22:39.137Z,99660.69
2019-04-01T18:25:05.498Z,99658.77
2019-04-01T18:27:31.501Z,99657.30
2019-04-01T18:29:57.405Z,99662.14
2019-04-01T18:32:23.557Z,99669.45
2019-04-01T18:34:49.470Z,99667.72
2019-04-01T18:37:15.617Z,99667.81
2019-04-01T18:39:47.890Z,99669.75
2019-04-01T18:42:09.612Z,99680.80
2019-04-01T18:44:35.728Z,99679.30
2019-04-01T18:47:03.935Z,99680.27
2019-04-01T18:49:29.614Z,99683.63
2019-04-01T18:51:55.503Z,99685.36
2019-04-01T18:54:21.535Z,99686.11
2019-04-01T18:56:47.785Z,99684.59
2019-04-01T18:59:13.923Z,99687.76
2019-04-01T19:01:39.828Z,99696.05
2019-04-01T19:04:05.848Z,99697.73
2019-04-01T19:06:31.973Z,99700.78
2019-04-01T19:09:08.695Z,99702.13
2019-04-01T19:11:25.658Z,99715.09
2019-04-01T19:13:51.554Z,99713.66
2019-04-01T19:16:17.508Z,99718.14
2019-04-01T19:18:43.564Z,99715.64
2019-04-01T19:21:09.781Z,99719.48
2019-04-01T19:25:41.059Z,99727.70
2019-04-01T19:28:07.080Z,99727.50
2019-04-01T19:30:33.264Z,99719.66
2019-04-01T19:32:59.168Z,99722.13
2019-04-01T19:35:25.039Z,99730.72
2019-04-01T19:37:50.984Z,99728.34
2019-04-01T19:40:20.267Z,99734.69
2019-04-01T19:42:44.991Z,99736.88
2019-04-01T19:45:12.420Z,99740.48
2019-04-01T19:47:38.418Z,99735.23
2019-04-01T19:50:06.398Z,99740.66
2019-04-01T19:52:32.423Z,99741.70
2019-04-01T19:54:58.329Z,99746.73
2019-04-01T19:57:24.682Z,99750.94
2019-04-01T19:59:50.711Z,99751.83
2019-04-01T20:02:16.683Z,99759.16
2019-04-01T20:04:42.786Z,99762.47
2019-04-01T20:07:08.884Z,99762.83
2019-04-01T20:09:34.820Z,99768.81
2019-04-01T20:12:00.703Z,99763.40
2019-04-01T20:14:26.698Z,99768.57
2019-04-01T20:16:52.735Z,99773.27
2019-04-01T20:19:18.733Z,99773.99
2019-04-01T20:21:47.275Z,99775.36
2019-04-01T20:24:12.419Z,99779.08
2019-04-01T20:26:38.563Z,99780.30
2019-04-01T20:29:04.816Z,99775.02
2019-04-01T20:31:30.810Z,99779.86
2019-04-01T20:33:56.920Z,99778.25
2019-04-01T20:36:28.649Z,99779.94
2019-04-01T20:38:52.757Z,99786.97
2019-04-01T20:41:18.921Z,99780.02
2019-04-01T20:43:45.052Z,99785.63
2019-04-01T20:46:11.390Z,99787.67
2019-04-01T20:48:37.400Z,99786.74
2019-04-01T20:51:03.502Z,99783.67
2019-04-01T20:53:29.509Z,99785.82
2019-04-01T20:55:55.975Z,99782.94
2019-04-01T20:58:22.113Z,99779.72
2019-04-01T21:00:48.150Z,99792.16
2019-04-01T21:03:14.863Z,99787.37
2019-04-01T21:05:41.351Z,99785.90
2019-04-01T21:08:07.407Z,99789.67
2019-04-01T21:10:33.910Z,99787.30
2019-04-01T21:13:00.410Z,99781.34
2019-04-01T21:15:27.053Z,99796.08
2019-04-01T21:17:53.128Z,99780.86
2019-04-01T21:20:19.138Z,99788.63
2019-04-01T21:22:45.076Z,99785.64
2019-04-01T21:25:11.768Z,99788.63
2019-04-01T21:27:38.175Z,99784.16
2019-04-01T21:30:09.439Z,99781.02
2019-04-01T21:32:35.548Z,99788.16
2019-04-01T21:35:01.947Z,99782.53
2019-04-01T21:37:27.948Z,99787.48
2019-04-01T21:39:53.963Z,99782.61
2019-04-01T21:42:19.942Z,99784.72
2019-04-01T21:44:47.441Z,99779.86
2019-04-01T21:47:13.534Z,99785.12
2019-04-01T21:49:39.437Z,99788.59
2019-04-01T21:52:06.056Z,99786.41
2019-04-01T21:54:32.083Z,99784.67
2019-04-01T21:56:58.167Z,99788.89
2019-04-01T21:59:24.143Z,99786.52
2019-04-01T22:01:50.231Z,99783.06
2019-04-01T22:04:16.104Z,99787.44
2019-04-01T22:06:42.153Z,99782.91
2019-04-01T22:09:09.253Z,99786.89
2019-04-01T22:11:35.328Z,99784.91
2019-04-01T22:14:01.322Z,99783.18
2019-04-01T22:16:27.184Z,99788.98
2019-04-01T22:18:53.178Z,99788.74
2019-04-01T22:21:19.120Z,99789.46
2019-04-01T22:23:45.063Z,99789.29
2019-04-01T22:26:10.957Z,99788.05
2019-04-01T22:28:36.951Z,99794.23
2019-04-01T22:31:02.866Z,99794.23
2019-04-01T22:33:28.775Z,99789.63
2019-04-01T22:35:54.693Z,99792.91
2019-04-01T22:38:25.323Z,99793.55
2019-04-01T22:40:48.716Z,99795.12
2019-04-01T22:43:14.613Z,99799.10
2019-04-01T22:45:40.494Z,99792.85
2019-04-01T22:48:06.524Z,99793.23
2019-04-01T22:50:32.521Z,99806.29
2019-04-01T22:52:58.406Z,99795.57
2019-04-01T22:55:24.530Z,99796.73
2019-04-01T22:57:50.502Z,99790.93
2019-04-01T23:00:17.487Z,99787.08
2019-04-01T23:02:44.425Z,99789.57
2019-04-01T23:05:10.544Z,99789.27
2019-04-01T23:07:36.549Z,99786.56
2019-04-01T23:10:05.307Z,99786.39
2019-04-01T23:12:31.204Z,99781.45
2019-04-01T23:14:57.223Z,99781.52
2019-04-01T23:17:23.123Z,99779.36
2019-04-01T23:19:49.032Z,99782.34
2019-04-01T23:22:15.110Z,99784.81
2019-04-01T23:24:41.121Z,99780.23
2019-04-01T23:27:07.018Z,99780.83
2019-04-01T23:29:33.055Z,99776.59
2019-04-01T23:31:58.931Z,99780.02
2019-04-01T23:34:24.816Z,99782.91
2019-04-01T23:36:50.729Z,99773.84
2019-04-01T23:39:16.640Z,99774.02
2019-04-01T23:41:42.700Z,99779.73
2019-04-01T23:44:08.625Z,99772.17
2019-04-01T23:46:34.606Z,99772.56
2019-04-01T23:49:00.573Z,99772.02
2019-04-01T23:51:26.472Z,99772.33
2019-04-01T23:53:52.370Z,99769.38
2019-04-01T23:56:18.641Z,99767.67
2019-04-01T23:58:44.529Z,99776.32
